Far Out — 9HB3529 — position and weather

sailwx.info

Track history (hours):
 
Tides and Currents Weather Stations Pressure Air Temp Water Temp Dewpoint Dewpoint Depression Visibility Wind Speed Wind Dir Waves Ship Positions

Far Out

Last reported at 2017-Sep-12 08:26 UTC. Time now 2017-Sep-24 21:24 UTC.
Position N 37°26' E 025°19'.
Warning: this ship's position is 12 days out of date.

Length 22 m.

Type: Sailing vessel. MMSI: 248000426.

Date/timePositionNaut miles runAvg speedWind from/ knotsBaromVisibWave heightAir tempDewpointWater temp
2017-Sep-12 08:26N 37°26' E 025°19'0 0.2
2017-Sep-12 07:45N 37°26' E 025°19'0 0.0
2017-Sep-12 07:27N 37°26' E 025°19'0 0.0
2017-Sep-12 04:30N 37°26' E 025°19'0 0.0
2017-Sep-12 03:45N 37°26' E 025°19'0 0.0
2017-Sep-12 03:21N 37°26' E 025°19'0 0.1
2017-Sep-11 23:45N 37°26' E 025°19'0 0.4
2017-Sep-11 22:53N 37°27' E 025°19'0 0.0
2017-Sep-11 22:29N 37°27' E 025°19'0 0.0
2017-Sep-11 21:56N 37°27' E 025°19'0 0.0
2017-Sep-11 21:14N 37°27' E 025°19'0 0.0
2017-Sep-11 20:11N 37°27' E 025°19'0 0.0
2017-Sep-11 19:41N 37°27' E 025°19'0 0.0
2017-Sep-11 19:23N 37°27' E 025°19'0 0.0
2017-Sep-11 18:47N 37°27' E 025°19'0 0.0
2017-Sep-11 18:29N 37°27' E 025°19'0 0.0
2017-Sep-11 17:20N 37°27' E 025°19'2 0.3
2017-Sep-11 08:50N 37°27' E 025°16'1 0.1
2017-Sep-10 17:14N 37°27' E 025°18'4 0.9
2017-Sep-10 12:40N 37°24' E 025°14'0 0.0
2017-Sep-10 12:22N 37°24' E 025°14'0 0.0
2017-Sep-10 11:55N 37°24' E 025°14'0 0.0
2017-Sep-10 11:25N 37°24' E 025°14'4 0.2
2017-Sep-09 11:25N 37°27' E 025°18'5 9.1
2017-Sep-09 10:55N 37°27' E 025°12'4 9.0
2017-Sep-09 10:30N 37°28' E 025°08'  
Track history (hours):
 
Tides and Currents Weather Stations Pressure Air Temp Water Temp Dewpoint Dewpoint Depression Visibility Wind Speed Wind Dir Waves Ship Positions

Far Out

Last reported at 2017-Sep-12 08:26 UTC. Time now 2017-Sep-24 21:24 UTC.
Position N 37°26' E 025°19'.
Warning: this ship's position is 12 days out of date.

Length 22 m.

Type: Sailing vessel. MMSI: 248000426.

Date/timePositionNaut miles runAvg speedWind from/ knotsBaromVisibWave heightAir tempDewpointWater temp
2017-Sep-12 08:26N 37°26' E 025°19'0 0.2
2017-Sep-12 07:45N 37°26' E 025°19'0 0.0
2017-Sep-12 07:27N 37°26' E 025°19'0 0.0
2017-Sep-12 04:30N 37°26' E 025°19'0 0.0
2017-Sep-12 03:45N 37°26' E 025°19'0 0.0
2017-Sep-12 03:21N 37°26' E 025°19'0 0.1
2017-Sep-11 23:45N 37°26' E 025°19'0 0.4
2017-Sep-11 22:53N 37°27' E 025°19'0 0.0
2017-Sep-11 22:29N 37°27' E 025°19'0 0.0
2017-Sep-11 21:56N 37°27' E 025°19'0 0.0
2017-Sep-11 21:14N 37°27' E 025°19'0 0.0
2017-Sep-11 20:11N 37°27' E 025°19'0 0.0
2017-Sep-11 19:41N 37°27' E 025°19'0 0.0
2017-Sep-11 19:23N 37°27' E 025°19'0 0.0
2017-Sep-11 18:47N 37°27' E 025°19'0 0.0
2017-Sep-11 18:29N 37°27' E 025°19'0 0.0
2017-Sep-11 17:20N 37°27' E 025°19'2 0.3
2017-Sep-11 08:50N 37°27' E 025°16'1 0.1
2017-Sep-10 17:14N 37°27' E 025°18'4 0.9
2017-Sep-10 12:40N 37°24' E 025°14'0 0.0
2017-Sep-10 12:22N 37°24' E 025°14'0 0.0
2017-Sep-10 11:55N 37°24' E 025°14'0 0.0
2017-Sep-10 11:25N 37°24' E 025°14'4 0.2
2017-Sep-09 11:25N 37°27' E 025°18'5 9.1
2017-Sep-09 10:55N 37°27' E 025°12'4 9.0
2017-Sep-09 10:30N 37°28' E 025°08'  

Dump ship's entire track history